sensor_id;sensor_type;location;lat;lon;timestamp;temperature;humidity
57390;DHT22;43217;52.694;6.214;2022-11-04T00:01:38;10.90;99.90
57390;DHT22;43217;52.694;6.214;2022-11-04T00:04:04;10.90;99.90
57390;DHT22;43217;52.694;6.214;2022-11-04T00:06:51;10.80;99.90
57390;DHT22;43217;52.694;6.214;2022-11-04T00:09:20;10.80;99.90
57390;DHT22;43217;52.694;6.214;2022-11-04T00:11:46;10.80;99.90
57390;DHT22;43217;52.694;6.214;2022-11-04T00:14:33;10.80;99.90
57390;DHT22;43217;52.694;6.214;2022-11-04T00:17:00;10.70;99.90
57390;DHT22;43217;52.694;6.214;2022-11-04T00:19:45;10.70;99.90
57390;DHT22;43217;52.694;6.214;2022-11-04T00:22:30;10.80;99.90
57390;DHT22;43217;52.694;6.214;2022-11-04T00:25:14;10.80;99.90
57390;DHT22;43217;52.694;6.214;2022-11-04T00:28:05;10.70;99.90
57390;DHT22;43217;52.694;6.214;2022-11-04T00:30:58;10.70;99.90
57390;DHT22;43217;52.694;6.214;2022-11-04T00:33:48;10.70;99.90
57390;DHT22;43217;52.694;6.214;2022-11-04T00:36:14;10.70;99.90
57390;DHT22;43217;52.694;6.214;2022-11-04T00:38:40;10.80;99.90
57390;DHT22;43217;52.694;6.214;2022-11-04T00:41:06;10.80;99.90
57390;DHT22;43217;52.694;6.214;2022-11-04T00:43:51;10.80;99.90
57390;DHT22;43217;52.694;6.214;2022-11-04T00:46:17;10.80;99.90
57390;DHT22;43217;52.694;6.214;2022-11-04T00:48:42;10.80;99.90
57390;DHT22;43217;52.694;6.214;2022-11-04T00:51:08;10.80;99.90
57390;DHT22;43217;52.694;6.214;2022-11-04T00:53:33;10.80;99.90
57390;DHT22;43217;52.694;6.214;2022-11-04T00:55:59;10.80;99.90
57390;DHT22;43217;52.694;6.214;2022-11-04T00:58:26;10.80;99.90
57390;DHT22;43217;52.694;6.214;2022-11-04T01:00:52;10.80;99.90
57390;DHT22;43217;52.694;6.214;2022-11-04T01:03:17;10.80;99.90
57390;DHT22;43217;52.694;6.214;2022-11-04T01:05:43;10.80;99.90
57390;DHT22;43217;52.694;6.214;2022-11-04T01:08:09;10.80;99.90
57390;DHT22;43217;52.694;6.214;2022-11-04T01:10:35;10.80;99.90
57390;DHT22;43217;52.694;6.214;2022-11-04T01:13:11;10.80;99.90
57390;DHT22;43217;52.694;6.214;2022-11-04T01:15:37;10.80;99.90
57390;DHT22;43217;52.694;6.214;2022-11-04T01:18:03;10.80;99.90
57390;DHT22;43217;52.694;6.214;2022-11-04T01:20:29;10.80;99.90
57390;DHT22;43217;52.694;6.214;2022-11-04T01:22:55;10.80;99.90
57390;DHT22;43217;52.694;6.214;2022-11-04T01:25:20;10.90;99.90
57390;DHT22;43217;52.694;6.214;2022-11-04T01:27:46;10.80;99.90
57390;DHT22;43217;52.694;6.214;2022-11-04T01:30:12;10.90;99.90
57390;DHT22;43217;52.694;6.214;2022-11-04T01:32:37;10.90;99.90
57390;DHT22;43217;52.694;6.214;2022-11-04T01:35:08;10.90;99.90
57390;DHT22;43217;52.694;6.214;2022-11-04T01:37:34;10.80;99.90
57390;DHT22;43217;52.694;6.214;2022-11-04T01:40:17;10.80;99.90
57390;DHT22;43217;52.694;6.214;2022-11-04T01:42:43;10.80;99.90
57390;DHT22;43217;52.694;6.214;2022-11-04T01:45:15;10.80;99.90
57390;DHT22;43217;52.694;6.214;2022-11-04T01:48:06;10.80;99.90
57390;DHT22;43217;52.694;6.214;2022-11-04T01:50:35;10.80;99.90
57390;DHT22;43217;52.694;6.214;2022-11-04T01:53:23;10.80;99.90
57390;DHT22;43217;52.694;6.214;2022-11-04T01:55:56;10.80;99.90
57390;DHT22;43217;52.694;6.214;2022-11-04T01:58:25;10.80;99.90
57390;DHT22;43217;52.694;6.214;2022-11-04T02:00:52;10.80;99.90
57390;DHT22;43217;52.694;6.214;2022-11-04T02:03:23;10.80;99.90
57390;DHT22;43217;52.694;6.214;2022-11-04T02:05:50;10.80;99.90
57390;DHT22;43217;52.694;6.214;2022-11-04T02:08:16;10.80;99.90
57390;DHT22;43217;52.694;6.214;2022-11-04T02:10:49;10.80;99.90
57390;DHT22;43217;52.694;6.214;2022-11-04T02:13:16;10.80;99.90
57390;DHT22;43217;52.694;6.214;2022-11-04T02:29:30;10.70;99.90
57390;DHT22;43217;52.694;6.214;2022-11-04T02:32:11;10.70;99.90
57390;DHT22;43217;52.694;6.214;2022-11-04T02:34:58;10.70;99.90
57390;DHT22;43217;52.694;6.214;2022-11-04T02:43:52;10.60;99.90
57390;DHT22;43217;52.694;6.214;2022-11-04T02:49:06;10.50;99.90
57390;DHT22;43217;52.694;6.214;2022-11-04T02:51:44;10.50;99.90
57390;DHT22;43217;52.694;6.214;2022-11-04T02:54:28;10.50;99.90
57390;DHT22;43217;52.694;6.214;2022-11-04T02:56:58;10.50;99.90
57390;DHT22;43217;52.694;6.214;2022-11-04T02:59:38;10.50;99.90
57390;DHT22;43217;52.694;6.214;2022-11-04T03:02:08;10.50;99.90
57390;DHT22;43217;52.694;6.214;2022-11-04T03:04:39;10.50;99.90
57390;DHT22;43217;52.694;6.214;2022-11-04T03:07:08;10.40;99.90
57390;DHT22;43217;52.694;6.214;2022-11-04T03:09:38;10.40;99.90
57390;DHT22;43217;52.694;6.214;2022-11-04T03:12:08;10.40;99.90
57390;DHT22;43217;52.694;6.214;2022-11-04T03:14:42;10.30;99.90
57390;DHT22;43217;52.694;6.214;2022-11-04T03:17:24;10.30;99.90
57390;DHT22;43217;52.694;6.214;2022-11-04T03:20:16;10.30;99.90
57390;DHT22;43217;52.694;6.214;2022-11-04T03:22:42;10.30;99.90
57390;DHT22;43217;52.694;6.214;2022-11-04T03:25:08;10.20;99.90
57390;DHT22;43217;52.694;6.214;2022-11-04T03:27:42;10.20;99.90
57390;DHT22;43217;52.694;6.214;2022-11-04T03:30:18;10.20;99.90
57390;DHT22;43217;52.694;6.214;2022-11-04T03:35:33;10.20;99.90
57390;DHT22;43217;52.694;6.214;2022-11-04T03:37:58;10.20;99.90
57390;DHT22;43217;52.694;6.214;2022-11-04T03:40:25;10.20;99.90
57390;DHT22;43217;52.694;6.214;2022-11-04T03:43:09;10.20;99.90
57390;DHT22;43217;52.694;6.214;2022-11-04T03:45:36;10.20;99.90
57390;DHT22;43217;52.694;6.214;2022-11-04T03:48:01;10.20;99.90
57390;DHT22;43217;52.694;6.214;2022-11-04T03:50:30;10.20;99.90
57390;DHT22;43217;52.694;6.214;2022-11-04T03:52:56;10.20;99.90
57390;DHT22;43217;52.694;6.214;2022-11-04T03:55:53;10.20;99.90
57390;DHT22;43217;52.694;6.214;2022-11-04T04:03:54;10.00;99.90
57390;DHT22;43217;52.694;6.214;2022-11-04T04:06:32;10.10;99.90
57390;DHT22;43217;52.694;6.214;2022-11-04T04:09:20;10.00;99.90
57390;DHT22;43217;52.694;6.214;2022-11-04T04:12:09;10.00;99.90
57390;DHT22;43217;52.694;6.214;2022-11-04T04:14:48;10.00;99.90
57390;DHT22;43217;52.694;6.214;2022-11-04T04:17:31;9.90;99.90
57390;DHT22;43217;52.694;6.214;2022-11-04T04:20:13;9.90;99.90
57390;DHT22;43217;52.694;6.214;2022-11-04T04:22:44;9.90;99.90
57390;DHT22;43217;52.694;6.214;2022-11-04T04:25:12;9.90;99.90
57390;DHT22;43217;52.694;6.214;2022-11-04T04:27:57;9.90;99.90
57390;DHT22;43217;52.694;6.214;2022-11-04T04:30:24;9.90;99.90
57390;DHT22;43217;52.694;6.214;2022-11-04T04:33:00;9.90;99.90
57390;DHT22;43217;52.694;6.214;2022-11-04T04:35:31;9.90;99.90
57390;DHT22;43217;52.694;6.214;2022-11-04T04:38:21;10.00;99.90
57390;DHT22;43217;52.694;6.214;2022-11-04T04:41:17;10.00;99.90
57390;DHT22;43217;52.694;6.214;2022-11-04T04:44:03;10.00;99.90
57390;DHT22;43217;52.694;6.214;2022-11-04T04:46:49;10.00;99.90
57390;DHT22;43217;52.694;6.214;2022-11-04T04:49:16;10.00;99.90
57390;DHT22;43217;52.694;6.214;2022-11-04T04:51:44;10.00;99.90
57390;DHT22;43217;52.694;6.214;2022-11-04T04:54:11;10.00;99.90
57390;DHT22;43217;52.694;6.214;2022-11-04T04:56:37;10.10;99.90
57390;DHT22;43217;52.694;6.214;2022-11-04T04:59:03;10.10;99.90
57390;DHT22;43217;52.694;6.214;2022-11-04T05:01:28;10.10;99.90
57390;DHT22;43217;52.694;6.214;2022-11-04T05:03:54;10.10;99.90
57390;DHT22;43217;52.694;6.214;2022-11-04T05:06:19;10.00;99.90
57390;DHT22;43217;52.694;6.214;2022-11-04T05:08:45;10.00;99.90
57390;DHT22;43217;52.694;6.214;2022-11-04T05:11:11;10.00;99.90
57390;DHT22;43217;52.694;6.214;2022-11-04T05:13:37;10.00;99.90
57390;DHT22;43217;52.694;6.214;2022-11-04T05:16:10;10.00;99.90
57390;DHT22;43217;52.694;6.214;2022-11-04T05:18:36;10.00;99.90
57390;DHT22;43217;52.694;6.214;2022-11-04T05:21:03;10.00;99.90
57390;DHT22;43217;52.694;6.214;2022-11-04T05:23:29;10.00;99.90
57390;DHT22;43217;52.694;6.214;2022-11-04T05:25:57;10.00;99.90
57390;DHT22;43217;52.694;6.214;2022-11-04T05:28:23;10.00;99.90
57390;DHT22;43217;52.694;6.214;2022-11-04T05:30:48;10.00;99.90
57390;DHT22;43217;52.694;6.214;2022-11-04T05:33:14;10.00;99.90
57390;DHT22;43217;52.694;6.214;2022-11-04T05:35:39;10.00;99.90
57390;DHT22;43217;52.694;6.214;2022-11-04T05:38:05;9.90;99.90
57390;DHT22;43217;52.694;6.214;2022-11-04T05:40:31;9.90;99.90
57390;DHT22;43217;52.694;6.214;2022-11-04T05:42:57;9.80;99.90
57390;DHT22;43217;52.694;6.214;2022-11-04T05:45:24;9.80;99.90
57390;DHT22;43217;52.694;6.214;2022-11-04T05:47:56;9.80;99.90
57390;DHT22;43217;52.694;6.214;2022-11-04T05:50:22;9.70;99.90
57390;DHT22;43217;52.694;6.214;2022-11-04T05:52:48;9.70;99.90
57390;DHT22;43217;52.694;6.214;2022-11-04T05:55:13;9.60;99.90
57390;DHT22;43217;52.694;6.214;2022-11-04T05:57:39;9.60;99.90
57390;DHT22;43217;52.694;6.214;2022-11-04T06:00:05;9.50;99.90
57390;DHT22;43217;52.694;6.214;2022-11-04T06:02:31;9.50;99.90
57390;DHT22;43217;52.694;6.214;2022-11-04T06:04:57;9.40;99.90
57390;DHT22;43217;52.694;6.214;2022-11-04T06:07:22;9.40;99.90
57390;DHT22;43217;52.694;6.214;2022-11-04T06:09:48;9.40;99.90
57390;DHT22;43217;52.694;6.214;2022-11-04T06:12:15;9.30;99.90
57390;DHT22;43217;52.694;6.214;2022-11-04T06:14:42;9.30;99.90
57390;DHT22;43217;52.694;6.214;2022-11-04T06:17:18;9.20;99.90
57390;DHT22;43217;52.694;6.214;2022-11-04T06:19:44;9.20;99.90
57390;DHT22;43217;52.694;6.214;2022-11-04T06:22:14;9.20;99.90
57390;DHT22;43217;52.694;6.214;2022-11-04T06:24:40;9.10;99.90
57390;DHT22;43217;52.694;6.214;2022-11-04T06:27:06;9.10;99.90
57390;DHT22;43217;52.694;6.214;2022-11-04T06:29:32;9.10;99.90
57390;DHT22;43217;52.694;6.214;2022-11-04T06:31:58;9.10;99.90
57390;DHT22;43217;52.694;6.214;2022-11-04T06:34:24;9.10;99.90
57390;DHT22;43217;52.694;6.214;2022-11-04T06:36:50;9.10;99.90
57390;DHT22;43217;52.694;6.214;2022-11-04T06:39:15;9.10;99.90
57390;DHT22;43217;52.694;6.214;2022-11-04T06:41:41;9.10;99.90
57390;DHT22;43217;52.694;6.214;2022-11-04T06:44:07;9.10;99.90
57390;DHT22;43217;52.694;6.214;2022-11-04T06:46:36;9.10;99.90
57390;DHT22;43217;52.694;6.214;2022-11-04T06:49:03;9.10;99.90
57390;DHT22;43217;52.694;6.214;2022-11-04T06:51:29;9.10;99.90
57390;DHT22;43217;52.694;6.214;2022-11-04T06:53:55;9.00;99.90
57390;DHT22;43217;52.694;6.214;2022-11-04T06:56:23;9.00;99.90
57390;DHT22;43217;52.694;6.214;2022-11-04T06:58:50;9.00;99.90
57390;DHT22;43217;52.694;6.214;2022-11-04T07:01:17;9.00;99.90
57390;DHT22;43217;52.694;6.214;2022-11-04T07:03:43;9.00;99.90
57390;DHT22;43217;52.694;6.214;2022-11-04T07:06:09;9.00;99.90
57390;DHT22;43217;52.694;6.214;2022-11-04T07:08:35;9.10;99.90
57390;DHT22;43217;52.694;6.214;2022-11-04T07:11:02;9.10;99.90
57390;DHT22;43217;52.694;6.214;2022-11-04T07:13:30;9.10;99.90
57390;DHT22;43217;52.694;6.214;2022-11-04T07:15:56;9.20;99.90
57390;DHT22;43217;52.694;6.214;2022-11-04T07:18:22;9.20;99.90
57390;DHT22;43217;52.694;6.214;2022-11-04T07:20:48;9.20;99.90
57390;DHT22;43217;52.694;6.214;2022-11-04T07:23:13;9.20;99.90
57390;DHT22;43217;52.694;6.214;2022-11-04T07:25:39;9.30;99.90
57390;DHT22;43217;52.694;6.214;2022-11-04T07:28:05;9.30;99.90
57390;DHT22;43217;52.694;6.214;2022-11-04T07:30:30;9.30;99.90
57390;DHT22;43217;52.694;6.214;2022-11-04T07:32:56;9.40;99.90
57390;DHT22;43217;52.694;6.214;2022-11-04T07:35:23;9.40;99.90
57390;DHT22;43217;52.694;6.214;2022-11-04T07:37:48;9.40;99.90
57390;DHT22;43217;52.694;6.214;2022-11-04T07:40:14;9.40;99.90
57390;DHT22;43217;52.694;6.214;2022-11-04T07:42:39;9.40;99.90
57390;DHT22;43217;52.694;6.214;2022-11-04T07:45:06;9.40;99.90
57390;DHT22;43217;52.694;6.214;2022-11-04T07:47:32;9.50;99.90
57390;DHT22;43217;52.694;6.214;2022-11-04T07:49:57;9.50;99.90
57390;DHT22;43217;52.694;6.214;2022-11-04T07:52:23;9.60;99.90
57390;DHT22;43217;52.694;6.214;2022-11-04T07:54:49;9.60;99.90
57390;DHT22;43217;52.694;6.214;2022-11-04T07:57:15;9.60;99.90
57390;DHT22;43217;52.694;6.214;2022-11-04T07:59:40;9.70;99.90
57390;DHT22;43217;52.694;6.214;2022-11-04T08:02:06;9.70;99.90
57390;DHT22;43217;52.694;6.214;2022-11-04T08:04:32;9.70;99.90
57390;DHT22;43217;52.694;6.214;2022-11-04T08:06:57;9.70;99.90
57390;DHT22;43217;52.694;6.214;2022-11-04T08:09:23;9.70;99.90
57390;DHT22;43217;52.694;6.214;2022-11-04T08:12:04;9.70;99.90
57390;DHT22;43217;52.694;6.214;2022-11-04T08:14:29;9.70;99.90
57390;DHT22;43217;52.694;6.214;2022-11-04T08:16:55;9.60;99.90
57390;DHT22;43217;52.694;6.214;2022-11-04T08:19:23;9.60;99.90
57390;DHT22;43217;52.694;6.214;2022-11-04T08:21:49;9.50;99.90
57390;DHT22;43217;52.694;6.214;2022-11-04T08:24:15;9.40;99.90
57390;DHT22;43217;52.694;6.214;2022-11-04T08:26:41;9.50;99.90
57390;DHT22;43217;52.694;6.214;2022-11-04T08:29:07;9.50;99.90
57390;DHT22;43217;52.694;6.214;2022-11-04T08:31:33;9.50;99.90
57390;DHT22;43217;52.694;6.214;2022-11-04T08:33:59;9.50;99.90
57390;DHT22;43217;52.694;6.214;2022-11-04T08:36:37;9.60;99.90
57390;DHT22;43217;52.694;6.214;2022-11-04T08:39:07;9.60;99.90
57390;DHT22;43217;52.694;6.214;2022-11-04T08:41:33;9.70;99.90
57390;DHT22;43217;52.694;6.214;2022-11-04T08:43:59;9.70;99.90
57390;DHT22;43217;52.694;6.214;2022-11-04T08:46:34;9.80;99.90
57390;DHT22;43217;52.694;6.214;2022-11-04T08:49:00;9.80;99.90
57390;DHT22;43217;52.694;6.214;2022-11-04T08:51:28;9.90;99.90
57390;DHT22;43217;52.694;6.214;2022-11-04T08:53:55;10.00;99.90
57390;DHT22;43217;52.694;6.214;2022-11-04T08:56:23;10.00;99.90
57390;DHT22;43217;52.694;6.214;2022-11-04T08:58:50;10.10;99.90
57390;DHT22;43217;52.694;6.214;2022-11-04T09:01:16;10.10;99.90
57390;DHT22;43217;52.694;6.214;2022-11-04T09:03:43;10.10;99.90
57390;DHT22;43217;52.694;6.214;2022-11-04T09:06:12;10.20;99.90
57390;DHT22;43217;52.694;6.214;2022-11-04T09:08:39;10.20;99.90
57390;DHT22;43217;52.694;6.214;2022-11-04T09:11:10;10.20;99.90
57390;DHT22;43217;52.694;6.214;2022-11-04T09:13:36;10.20;99.90
57390;DHT22;43217;52.694;6.214;2022-11-04T09:16:02;10.30;99.90
57390;DHT22;43217;52.694;6.214;2022-11-04T09:18:29;10.30;99.90
57390;DHT22;43217;52.694;6.214;2022-11-04T09:20:58;10.40;99.90
57390;DHT22;43217;52.694;6.214;2022-11-04T09:23:25;10.40;99.90
57390;DHT22;43217;52.694;6.214;2022-11-04T09:25:50;10.40;99.90
57390;DHT22;43217;52.694;6.214;2022-11-04T09:28:16;10.40;99.90
57390;DHT22;43217;52.694;6.214;2022-11-04T09:30:42;10.40;99.90
57390;DHT22;43217;52.694;6.214;2022-11-04T09:33:07;10.50;99.90
57390;DHT22;43217;52.694;6.214;2022-11-04T09:35:33;10.50;99.90
57390;DHT22;43217;52.694;6.214;2022-11-04T09:37:59;10.50;99.90
57390;DHT22;43217;52.694;6.214;2022-11-04T09:40:26;10.50;99.90
57390;DHT22;43217;52.694;6.214;2022-11-04T09:45:57;10.50;99.90
57390;DHT22;43217;52.694;6.214;2022-11-04T09:48:34;10.40;99.90
57390;DHT22;43217;52.694;6.214;2022-11-04T09:51:03;10.50;99.90
57390;DHT22;43217;52.694;6.214;2022-11-04T09:53:51;10.50;99.90
57390;DHT22;43217;52.694;6.214;2022-11-04T09:56:28;10.50;99.90
57390;DHT22;43217;52.694;6.214;2022-11-04T09:58:55;10.60;99.90
57390;DHT22;43217;52.694;6.214;2022-11-04T10:07:17;10.80;99.90
57390;DHT22;43217;52.694;6.214;2022-11-04T10:15:31;11.00;99.90
57390;DHT22;43217;52.694;6.214;2022-11-04T10:18:08;11.10;99.90
57390;DHT22;43217;52.694;6.214;2022-11-04T10:20:59;11.10;99.90
57390;DHT22;43217;52.694;6.214;2022-11-04T10:23:44;11.20;99.90
57390;DHT22;43217;52.694;6.214;2022-11-04T10:26:22;11.20;99.90
57390;DHT22;43217;52.694;6.214;2022-11-04T10:29:01;11.30;99.90
57390;DHT22;43217;52.694;6.214;2022-11-04T10:31:28;11.30;99.90
57390;DHT22;43217;52.694;6.214;2022-11-04T10:36:48;11.40;99.90
57390;DHT22;43217;52.694;6.214;2022-11-04T10:39:26;11.50;99.90
57390;DHT22;43217;52.694;6.214;2022-11-04T10:41:53;11.50;99.90
57390;DHT22;43217;52.694;6.214;2022-11-04T10:44:27;11.60;99.90
57390;DHT22;43217;52.694;6.214;2022-11-04T10:52:36;11.80;99.90
57390;DHT22;43217;52.694;6.214;2022-11-04T10:55:04;11.80;99.90
57390;DHT22;43217;52.694;6.214;2022-11-04T10:57:35;11.80;99.90
57390;DHT22;43217;52.694;6.214;2022-11-04T11:00:02;11.80;99.90
57390;DHT22;43217;52.694;6.214;2022-11-04T11:05:21;11.90;99.90
57390;DHT22;43217;52.694;6.214;2022-11-04T11:07:50;11.90;99.90
57390;DHT22;43217;52.694;6.214;2022-11-04T11:15:36;11.90;99.90
57390;DHT22;43217;52.694;6.214;2022-11-04T11:20:38;12.00;99.90
57390;DHT22;43217;52.694;6.214;2022-11-04T11:23:08;12.10;99.90
57390;DHT22;43217;52.694;6.214;2022-11-04T11:25:51;12.10;99.90
57390;DHT22;43217;52.694;6.214;2022-11-04T11:28:22;12.10;99.90
57390;DHT22;43217;52.694;6.214;2022-11-04T11:30:55;12.20;99.90
57390;DHT22;43217;52.694;6.214;2022-11-04T11:33:29;12.20;99.90
57390;DHT22;43217;52.694;6.214;2022-11-04T11:36:08;12.30;99.90
57390;DHT22;43217;52.694;6.214;2022-11-04T11:38:38;12.40;99.90
57390;DHT22;43217;52.694;6.214;2022-11-04T11:41:15;12.50;99.90
57390;DHT22;43217;52.694;6.214;2022-11-04T11:43:49;12.60;99.90
57390;DHT22;43217;52.694;6.214;2022-11-04T11:46:21;12.60;99.90
57390;DHT22;43217;52.694;6.214;2022-11-04T11:48:52;12.70;99.90
57390;DHT22;43217;52.694;6.214;2022-11-04T11:51:31;12.70;99.90
57390;DHT22;43217;52.694;6.214;2022-11-04T11:57:28;12.70;99.90
57390;DHT22;43217;52.694;6.214;2022-11-04T12:00:02;12.70;99.90
57390;DHT22;43217;52.694;6.214;2022-11-04T12:02:44;12.70;99.90
57390;DHT22;43217;52.694;6.214;2022-11-04T12:05:12;12.70;99.90
57390;DHT22;43217;52.694;6.214;2022-11-04T12:13:25;12.80;99.90
57390;DHT22;43217;52.694;6.214;2022-11-04T12:21:23;12.60;99.90
57390;DHT22;43217;52.694;6.214;2022-11-04T12:24:04;12.60;99.90
57390;DHT22;43217;52.694;6.214;2022-11-04T12:41:00;12.50;99.90
57390;DHT22;43217;52.694;6.214;2022-11-04T12:57:40;12.40;99.90
57390;DHT22;43217;52.694;6.214;2022-11-04T13:00:10;12.50;99.90
57390;DHT22;43217;52.694;6.214;2022-11-04T13:08:29;12.60;99.90
57390;DHT22;43217;52.694;6.214;2022-11-04T13:11:29;12.60;99.90
57390;DHT22;43217;52.694;6.214;2022-11-04T13:14:07;12.60;99.90
57390;DHT22;43217;52.694;6.214;2022-11-04T13:16:40;12.50;99.90
57390;DHT22;43217;52.694;6.214;2022-11-04T13:19:20;12.50;99.90
57390;DHT22;43217;52.694;6.214;2022-11-04T13:21:48;12.60;99.90
57390;DHT22;43217;52.694;6.214;2022-11-04T13:26:48;12.50;99.90
57390;DHT22;43217;52.694;6.214;2022-11-04T13:29:17;12.50;99.90
57390;DHT22;43217;52.694;6.214;2022-11-04T13:31:52;12.50;99.90
57390;DHT22;43217;52.694;6.214;2022-11-04T13:40:17;12.40;99.90
57390;DHT22;43217;52.694;6.214;2022-11-04T13:43:14;12.30;99.90
57390;DHT22;43217;52.694;6.214;2022-11-04T13:46:01;12.30;99.90
57390;DHT22;43217;52.694;6.214;2022-11-04T13:48:31;12.20;99.90
57390;DHT22;43217;52.694;6.214;2022-11-04T13:51:04;12.20;99.90
57390;DHT22;43217;52.694;6.214;2022-11-04T13:53:44;12.10;99.90
57390;DHT22;43217;52.694;6.214;2022-11-04T13:56:31;12.10;99.90
57390;DHT22;43217;52.694;6.214;2022-11-04T13:59:22;12.00;99.90
57390;DHT22;43217;52.694;6.214;2022-11-04T14:04:39;12.00;99.90
57390;DHT22;43217;52.694;6.214;2022-11-04T14:07:08;11.90;99.90
57390;DHT22;43217;52.694;6.214;2022-11-04T14:14:36;11.90;99.90
57390;DHT22;43217;52.694;6.214;2022-11-04T14:17:02;11.80;99.90
57390;DHT22;43217;52.694;6.214;2022-11-04T14:22:20;11.90;99.90
57390;DHT22;43217;52.694;6.214;2022-11-04T14:24:57;11.80;99.90
57390;DHT22;43217;52.694;6.214;2022-11-04T14:27:37;11.80;99.90
57390;DHT22;43217;52.694;6.214;2022-11-04T14:30:04;11.80;99.90
57390;DHT22;43217;52.694;6.214;2022-11-04T14:32:35;11.80;99.90
57390;DHT22;43217;52.694;6.214;2022-11-04T14:35:05;11.80;99.90
57390;DHT22;43217;52.694;6.214;2022-11-04T14:37:34;11.80;99.90
57390;DHT22;43217;52.694;6.214;2022-11-04T14:40:04;11.80;99.90
57390;DHT22;43217;52.694;6.214;2022-11-04T14:42:48;11.80;99.90
57390;DHT22;43217;52.694;6.214;2022-11-04T14:45:24;11.80;99.90
57390;DHT22;43217;52.694;6.214;2022-11-04T14:48:14;11.80;99.90
57390;DHT22;43217;52.694;6.214;2022-11-04T14:50:45;11.80;99.90
57390;DHT22;43217;52.694;6.214;2022-11-04T14:53:36;11.70;99.90
57390;DHT22;43217;52.694;6.214;2022-11-04T14:56:21;11.80;99.90
57390;DHT22;43217;52.694;6.214;2022-11-04T14:59:04;11.80;99.90
57390;DHT22;43217;52.694;6.214;2022-11-04T15:01:38;11.70;99.90
57390;DHT22;43217;52.694;6.214;2022-11-04T15:04:22;11.70;99.90
57390;DHT22;43217;52.694;6.214;2022-11-04T15:06:55;11.70;99.90
57390;DHT22;43217;52.694;6.214;2022-11-04T15:09:32;11.70;99.90
57390;DHT22;43217;52.694;6.214;2022-11-04T15:14:54;11.60;99.90
57390;DHT22;43217;52.694;6.214;2022-11-04T15:17:21;11.70;99.90
57390;DHT22;43217;52.694;6.214;2022-11-04T15:19:50;11.60;99.90
57390;DHT22;43217;52.694;6.214;2022-11-04T15:22:16;11.60;99.90
57390;DHT22;43217;52.694;6.214;2022-11-04T15:24:42;11.60;99.90
57390;DHT22;43217;52.694;6.214;2022-11-04T15:27:16;11.60;99.90
57390;DHT22;43217;52.694;6.214;2022-11-04T15:29:57;11.60;99.90
57390;DHT22;43217;52.694;6.214;2022-11-04T15:32:24;11.60;99.90
57390;DHT22;43217;52.694;6.214;2022-11-04T15:34:50;11.50;99.90
57390;DHT22;43217;52.694;6.214;2022-11-04T15:37:18;11.50;99.90
57390;DHT22;43217;52.694;6.214;2022-11-04T15:39:46;11.50;99.90
57390;DHT22;43217;52.694;6.214;2022-11-04T15:42:17;11.50;99.90
57390;DHT22;43217;52.694;6.214;2022-11-04T15:51:08;11.40;99.90
57390;DHT22;43217;52.694;6.214;2022-11-04T15:53:51;11.40;99.90
57390;DHT22;43217;52.694;6.214;2022-11-04T15:56:21;11.40;99.90
57390;DHT22;43217;52.694;6.214;2022-11-04T15:58:47;11.30;99.90
57390;DHT22;43217;52.694;6.214;2022-11-04T16:01:14;11.30;99.90
57390;DHT22;43217;52.694;6.214;2022-11-04T16:03:54;11.20;99.90
57390;DHT22;43217;52.694;6.214;2022-11-04T16:06:40;11.20;99.90
57390;DHT22;43217;52.694;6.214;2022-11-04T16:09:26;11.10;99.90
57390;DHT22;43217;52.694;6.214;2022-11-04T16:14:50;11.10;99.90
57390;DHT22;43217;52.694;6.214;2022-11-04T16:17:16;11.00;99.90
57390;DHT22;43217;52.694;6.214;2022-11-04T16:19:58;10.90;99.90
57390;DHT22;43217;52.694;6.214;2022-11-04T16:22:31;10.90;99.90
57390;DHT22;43217;52.694;6.214;2022-11-04T16:24:59;10.80;99.90
57390;DHT22;43217;52.694;6.214;2022-11-04T16:27:27;10.80;99.90
57390;DHT22;43217;52.694;6.214;2022-11-04T16:30:20;10.70;99.90
57390;DHT22;43217;52.694;6.214;2022-11-04T16:32:49;10.70;99.90
57390;DHT22;43217;52.694;6.214;2022-11-04T16:35:26;10.70;99.90
57390;DHT22;43217;52.694;6.214;2022-11-04T16:37:53;10.60;99.90
57390;DHT22;43217;52.694;6.214;2022-11-04T16:40:20;10.50;99.90
57390;DHT22;43217;52.694;6.214;2022-11-04T16:42:46;10.40;99.90
57390;DHT22;43217;52.694;6.214;2022-11-04T16:45:26;10.40;99.90
57390;DHT22;43217;52.694;6.214;2022-11-04T16:47:54;10.40;99.90
57390;DHT22;43217;52.694;6.214;2022-11-04T16:50:20;10.30;99.90
57390;DHT22;43217;52.694;6.214;2022-11-04T16:52:46;10.30;99.90
57390;DHT22;43217;52.694;6.214;2022-11-04T16:55:12;10.30;99.90
57390;DHT22;43217;52.694;6.214;2022-11-04T16:57:39;10.20;99.90
57390;DHT22;43217;52.694;6.214;2022-11-04T17:00:05;10.20;99.90
57390;DHT22;43217;52.694;6.214;2022-11-04T17:02:34;10.10;99.90
57390;DHT22;43217;52.694;6.214;2022-11-04T17:05:06;10.10;99.90
57390;DHT22;43217;52.694;6.214;2022-11-04T17:07:41;10.00;99.90
57390;DHT22;43217;52.694;6.214;2022-11-04T17:10:16;10.00;99.90
57390;DHT22;43217;52.694;6.214;2022-11-04T17:12:43;10.00;99.90
57390;DHT22;43217;52.694;6.214;2022-11-04T17:15:09;10.00;99.90
57390;DHT22;43217;52.694;6.214;2022-11-04T17:17:35;9.90;99.90
57390;DHT22;43217;52.694;6.214;2022-11-04T17:20:00;9.90;99.90
57390;DHT22;43217;52.694;6.214;2022-11-04T17:22:27;9.80;99.90
57390;DHT22;43217;52.694;6.214;2022-11-04T17:24:53;9.90;99.90
57390;DHT22;43217;52.694;6.214;2022-11-04T17:27:18;9.80;99.90
57390;DHT22;43217;52.694;6.214;2022-11-04T17:29:44;9.80;99.90
57390;DHT22;43217;52.694;6.214;2022-11-04T17:32:10;9.80;99.90
57390;DHT22;43217;52.694;6.214;2022-11-04T17:34:36;9.80;99.90
57390;DHT22;43217;52.694;6.214;2022-11-04T17:37:01;9.80;99.90
57390;DHT22;43217;52.694;6.214;2022-11-04T17:39:27;9.80;99.90
57390;DHT22;43217;52.694;6.214;2022-11-04T17:41:53;9.80;99.90
57390;DHT22;43217;52.694;6.214;2022-11-04T17:44:37;9.80;99.90
57390;DHT22;43217;52.694;6.214;2022-11-04T17:47:03;9.70;99.90
57390;DHT22;43217;52.694;6.214;2022-11-04T17:49:35;9.80;99.90
57390;DHT22;43217;52.694;6.214;2022-11-04T17:52:02;9.70;99.90
57390;DHT22;43217;52.694;6.214;2022-11-04T17:54:28;9.70;99.90
57390;DHT22;43217;52.694;6.214;2022-11-04T17:56:55;9.70;99.90
57390;DHT22;43217;52.694;6.214;2022-11-04T17:59:21;9.60;99.90
57390;DHT22;43217;52.694;6.214;2022-11-04T18:01:47;9.70;99.90
57390;DHT22;43217;52.694;6.214;2022-11-04T18:04:16;9.60;99.90
57390;DHT22;43217;52.694;6.214;2022-11-04T18:06:42;9.60;99.90
57390;DHT22;43217;52.694;6.214;2022-11-04T18:09:09;9.60;99.90
57390;DHT22;43217;52.694;6.214;2022-11-04T18:11:38;9.60;99.90
57390;DHT22;43217;52.694;6.214;2022-11-04T18:14:22;9.50;99.90
57390;DHT22;43217;52.694;6.214;2022-11-04T18:16:48;9.50;99.90
57390;DHT22;43217;52.694;6.214;2022-11-04T18:19:37;9.40;99.90
57390;DHT22;43217;52.694;6.214;2022-11-04T18:22:03;9.40;99.90
57390;DHT22;43217;52.694;6.214;2022-11-04T18:25:01;9.40;99.90